ALTO2: Altus Lake, OK

Data processed at Wed May 22 2019 23:50


All information presented herein is the property of the government of the United States of America and may be revised or deleted at any time without prior notice.
Dissemination of this information without the expressed written consent of the Public Affairs Office, Tulsa District U.S. Army Corps of Engineers is strictly prohibited.
These data are gathered electronically and, as presented, have not undergone any form of quality control. These data are not guaranteed to be valid or correct.
Go to home page.
Go to station list.
Go to home page.

Upstream stations:

Downstream station:
Previous Day
Next Day
Current Day
    
SHEF ID:       ALTO2     Altus Lake
STATION TYPE:  Reservoir
Flood Pool:  Bottom =  1559.00, Top =  1562.00

               PRECIP  RIV-FLOW ELEVATION   STORAGE    INFLOW   RELEASE   VOLTAGE  BAT-LOAD
                   in       cfs        ft     ac-ft       cfs       cfs      volt      volt
              Ccp-Rev   Ccp-Rev   Ccp-Rev   Ccp-Rev  Rev-Regi  Rev-Regi   Ccp-Rev   Ccp-Rev
(US/Central)
05/22 00:00      0.00      ----   1559.28    130701      3148      3301     12.25      ----
05/22 01:00      0.00      ----   1559.28    130701      2839      3301     12.25      ----
05/22 02:00      0.00      ----   1559.27    130637      2837      3298     12.25      ----
05/22 03:00      0.00      ----   1559.26    130573      2836      3296     12.25      ----
05/22 04:00      0.00      ----   1559.26    130573      2526      3296     12.17      ----
05/22 05:00      0.00      ----   1559.25    130510      2678      3294     12.17      ----
05/22 06:00      0.00      ----   1559.23    130382      2522      3289     12.17      ----
05/22 07:00      0.00      ----   1559.23    130382      2365      3289     12.17      ----
05/22 08:00      0.00      ----   1559.21    130255      2191      3284     12.25      ----
05/22 09:00      0.00      ----   1559.20    130192      2479      3970     12.41      ----
05/22 10:00      0.00      ----   1559.17    130001      2305      3962     12.89      ----
05/22 11:00      0.00      ----   1559.16    129937      2283      3959     13.13      ----
05/22 12:00      0.00      ----   1559.14    129810      2570      3953     13.05      ----
05/22 13:00      0.00      ----   1559.11    129619      2873      3945     13.29      ----
05/22 14:00      0.00      ----   1559.11    129619      2407      3945     14.08      ----
05/22 15:00      0.00      ----   1559.10    129555      2710      3942     14.00      ----
05/22 16:00      0.00      ----   1559.06    129301      2988      3931     12.57      ----
05/22 17:00      0.00      ----   1559.06    129301      2214      3931     14.24      ----
05/22 18:00      0.00      ----   1559.05    129237      2364      3161     12.57      ----
05/22 19:00      0.00      ----   1559.01    128983      2515      3152     12.73      ----
05/22 20:00      0.00      ----   1559.02    129046      2661      3155     12.57      ----
05/22 21:00      0.00      ----   1559.00    128919      3143      2349     12.41      ----
05/22 22:00      0.00      ----   1559.03    129110      4060      2356     12.33      ----
05/22 23:00      0.40      ----   1559.07    129364      4519      2364     12.25      ----